sensor_id;sensor_type;location;lat;lon;timestamp;P1;durP1;ratioP1;P2;durP2;ratioP2
6374;SDS011;35400;45.472;-122.822;2023-12-20T00:02:03;2.63;;;2.20;;
6374;SDS011;35400;45.472;-122.822;2023-12-20T00:04:30;2.13;;;1.93;;
6374;SDS011;35400;45.472;-122.822;2023-12-20T00:06:57;1.93;;;1.83;;
6374;SDS011;35400;45.472;-122.822;2023-12-20T00:09:24;2.30;;;1.87;;
6374;SDS011;35400;45.472;-122.822;2023-12-20T00:11:51;2.20;;;2.00;;
6374;SDS011;35400;45.472;-122.822;2023-12-20T00:14:17;1.83;;;1.73;;
6374;SDS011;35400;45.472;-122.822;2023-12-20T00:16:44;1.97;;;1.53;;
6374;SDS011;35400;45.472;-122.822;2023-12-20T00:19:11;2.00;;;1.80;;
6374;SDS011;35400;45.472;-122.822;2023-12-20T00:21:38;1.83;;;1.60;;
6374;SDS011;35400;45.472;-122.822;2023-12-20T00:24:05;2.10;;;1.90;;
6374;SDS011;35400;45.472;-122.822;2023-12-20T00:26:32;2.97;;;2.10;;
6374;SDS011;35400;45.472;-122.822;2023-12-20T00:28:58;1.83;;;1.70;;
6374;SDS011;35400;45.472;-122.822;2023-12-20T00:31:25;2.00;;;1.83;;
6374;SDS011;35400;45.472;-122.822;2023-12-20T00:33:53;1.83;;;1.73;;
6374;SDS011;35400;45.472;-122.822;2023-12-20T00:36:20;3.03;;;1.90;;
6374;SDS011;35400;45.472;-122.822;2023-12-20T00:38:47;3.63;;;1.97;;
6374;SDS011;35400;45.472;-122.822;2023-12-20T00:41:15;2.93;;;2.60;;
6374;SDS011;35400;45.472;-122.822;2023-12-20T00:43:42;2.37;;;2.00;;
6374;SDS011;35400;45.472;-122.822;2023-12-20T00:46:10;2.80;;;2.17;;
6374;SDS011;35400;45.472;-122.822;2023-12-20T00:48:36;3.10;;;2.23;;
6374;SDS011;35400;45.472;-122.822;2023-12-20T00:51:03;1.90;;;1.70;;
6374;SDS011;35400;45.472;-122.822;2023-12-20T00:53:30;2.30;;;2.10;;
6374;SDS011;35400;45.472;-122.822;2023-12-20T00:55:57;1.80;;;1.70;;
6374;SDS011;35400;45.472;-122.822;2023-12-20T00:58:24;2.00;;;1.70;;
6374;SDS011;35400;45.472;-122.822;2023-12-20T01:00:52;1.77;;;1.40;;
6374;SDS011;35400;45.472;-122.822;2023-12-20T01:03:19;2.10;;;1.90;;
6374;SDS011;35400;45.472;-122.822;2023-12-20T01:05:46;2.07;;;1.70;;
6374;SDS011;35400;45.472;-122.822;2023-12-20T01:08:13;2.53;;;2.33;;
6374;SDS011;35400;45.472;-122.822;2023-12-20T01:10:39;4.13;;;2.13;;
6374;SDS011;35400;45.472;-122.822;2023-12-20T01:13:06;2.37;;;2.17;;
6374;SDS011;35400;45.472;-122.822;2023-12-20T01:15:34;2.37;;;2.10;;
6374;SDS011;35400;45.472;-122.822;2023-12-20T01:18:01;2.77;;;1.97;;
6374;SDS011;35400;45.472;-122.822;2023-12-20T01:20:28;2.80;;;2.50;;
6374;SDS011;35400;45.472;-122.822;2023-12-20T01:22:55;2.97;;;2.40;;
6374;SDS011;35400;45.472;-122.822;2023-12-20T01:25:22;2.30;;;2.10;;
6374;SDS011;35400;45.472;-122.822;2023-12-20T01:27:48;3.07;;;2.57;;
6374;SDS011;35400;45.472;-122.822;2023-12-20T01:30:16;2.83;;;2.57;;
6374;SDS011;35400;45.472;-122.822;2023-12-20T01:32:43;2.40;;;2.20;;
6374;SDS011;35400;45.472;-122.822;2023-12-20T01:35:09;3.10;;;2.17;;
6374;SDS011;35400;45.472;-122.822;2023-12-20T01:37:38;2.83;;;2.30;;
6374;SDS011;35400;45.472;-122.822;2023-12-20T01:40:05;2.30;;;2.10;;
6374;SDS011;35400;45.472;-122.822;2023-12-20T01:42:32;3.40;;;2.90;;
6374;SDS011;35400;45.472;-122.822;2023-12-20T01:44:59;7.60;;;5.13;;
6374;SDS011;35400;45.472;-122.822;2023-12-20T01:47:25;14.20;;;8.80;;
6374;SDS011;35400;45.472;-122.822;2023-12-20T01:49:52;20.07;;;10.77;;
6374;SDS011;35400;45.472;-122.822;2023-12-20T01:52:22;24.83;;;15.37;;
6374;SDS011;35400;45.472;-122.822;2023-12-20T01:54:50;20.53;;;13.30;;
6374;SDS011;35400;45.472;-122.822;2023-12-20T01:57:20;13.50;;;9.23;;
6374;SDS011;35400;45.472;-122.822;2023-12-20T01:59:47;7.30;;;5.57;;
6374;SDS011;35400;45.472;-122.822;2023-12-20T02:02:14;5.10;;;4.10;;
6374;SDS011;35400;45.472;-122.822;2023-12-20T02:04:41;4.10;;;3.20;;
6374;SDS011;35400;45.472;-122.822;2023-12-20T02:07:08;3.90;;;3.13;;
6374;SDS011;35400;45.472;-122.822;2023-12-20T02:09:37;2.50;;;2.23;;
6374;SDS011;35400;45.472;-122.822;2023-12-20T02:12:05;3.17;;;2.30;;
6374;SDS011;35400;45.472;-122.822;2023-12-20T02:14:32;2.70;;;2.50;;
6374;SDS011;35400;45.472;-122.822;2023-12-20T02:16:59;5.70;;;2.97;;
6374;SDS011;35400;45.472;-122.822;2023-12-20T02:19:26;3.30;;;3.00;;
6374;SDS011;35400;45.472;-122.822;2023-12-20T02:22:04;3.40;;;3.10;;
6374;SDS011;35400;45.472;-122.822;2023-12-20T02:24:35;3.17;;;2.97;;
6374;SDS011;35400;45.472;-122.822;2023-12-20T02:27:02;2.73;;;2.53;;
6374;SDS011;35400;45.472;-122.822;2023-12-20T02:29:31;3.87;;;3.20;;
6374;SDS011;35400;45.472;-122.822;2023-12-20T02:32:02;3.40;;;3.10;;
6374;SDS011;35400;45.472;-122.822;2023-12-20T02:34:29;3.40;;;3.10;;
6374;SDS011;35400;45.472;-122.822;2023-12-20T02:36:56;3.80;;;3.43;;
6374;SDS011;35400;45.472;-122.822;2023-12-20T02:39:22;6.17;;;4.73;;
6374;SDS011;35400;45.472;-122.822;2023-12-20T02:41:50;5.60;;;5.00;;
6374;SDS011;35400;45.472;-122.822;2023-12-20T02:44:17;5.73;;;5.00;;
6374;SDS011;35400;45.472;-122.822;2023-12-20T02:46:44;6.13;;;5.53;;
6374;SDS011;35400;45.472;-122.822;2023-12-20T02:49:10;6.17;;;5.57;;
6374;SDS011;35400;45.472;-122.822;2023-12-20T02:51:38;6.63;;;5.93;;
6374;SDS011;35400;45.472;-122.822;2023-12-20T02:54:04;5.70;;;5.20;;
6374;SDS011;35400;45.472;-122.822;2023-12-20T02:56:32;5.37;;;4.80;;
6374;SDS011;35400;45.472;-122.822;2023-12-20T02:58:59;5.00;;;4.50;;
6374;SDS011;35400;45.472;-122.822;2023-12-20T03:01:26;4.77;;;4.17;;
6374;SDS011;35400;45.472;-122.822;2023-12-20T03:03:54;4.00;;;3.70;;
6374;SDS011;35400;45.472;-122.822;2023-12-20T03:06:21;4.67;;;4.23;;
6374;SDS011;35400;45.472;-122.822;2023-12-20T03:08:48;5.03;;;4.47;;
6374;SDS011;35400;45.472;-122.822;2023-12-20T03:11:15;3.63;;;3.30;;
6374;SDS011;35400;45.472;-122.822;2023-12-20T03:13:42;3.77;;;3.13;;
6374;SDS011;35400;45.472;-122.822;2023-12-20T03:16:09;3.83;;;3.47;;
6374;SDS011;35400;45.472;-122.822;2023-12-20T03:18:36;4.23;;;3.53;;
6374;SDS011;35400;45.472;-122.822;2023-12-20T03:21:04;3.53;;;3.23;;
6374;SDS011;35400;45.472;-122.822;2023-12-20T03:23:31;3.50;;;2.93;;
6374;SDS011;35400;45.472;-122.822;2023-12-20T03:25:59;4.07;;;3.40;;
6374;SDS011;35400;45.472;-122.822;2023-12-20T03:28:27;4.60;;;3.63;;
6374;SDS011;35400;45.472;-122.822;2023-12-20T03:30:54;3.20;;;2.30;;
6374;SDS011;35400;45.472;-122.822;2023-12-20T03:33:21;2.67;;;2.47;;
6374;SDS011;35400;45.472;-122.822;2023-12-20T03:35:47;3.23;;;2.50;;
6374;SDS011;35400;45.472;-122.822;2023-12-20T03:38:14;2.90;;;2.50;;
6374;SDS011;35400;45.472;-122.822;2023-12-20T03:40:41;3.33;;;2.43;;
6374;SDS011;35400;45.472;-122.822;2023-12-20T03:43:08;3.17;;;2.97;;
6374;SDS011;35400;45.472;-122.822;2023-12-20T03:45:35;3.17;;;2.87;;
6374;SDS011;35400;45.472;-122.822;2023-12-20T03:48:02;3.43;;;3.00;;
6374;SDS011;35400;45.472;-122.822;2023-12-20T03:50:29;3.47;;;3.00;;
6374;SDS011;35400;45.472;-122.822;2023-12-20T03:52:55;3.37;;;2.73;;
6374;SDS011;35400;45.472;-122.822;2023-12-20T03:55:22;2.90;;;2.57;;
6374;SDS011;35400;45.472;-122.822;2023-12-20T03:57:49;2.97;;;2.67;;
6374;SDS011;35400;45.472;-122.822;2023-12-20T04:00:16;3.43;;;2.80;;
6374;SDS011;35400;45.472;-122.822;2023-12-20T04:02:43;4.00;;;3.43;;
6374;SDS011;35400;45.472;-122.822;2023-12-20T04:05:10;3.73;;;3.33;;
6374;SDS011;35400;45.472;-122.822;2023-12-20T04:07:37;4.00;;;3.60;;
6374;SDS011;35400;45.472;-122.822;2023-12-20T04:10:05;3.80;;;3.37;;
6374;SDS011;35400;45.472;-122.822;2023-12-20T04:12:32;4.03;;;3.37;;
6374;SDS011;35400;45.472;-122.822;2023-12-20T04:14:59;4.87;;;4.37;;
6374;SDS011;35400;45.472;-122.822;2023-12-20T04:17:26;4.27;;;3.80;;
6374;SDS011;35400;45.472;-122.822;2023-12-20T04:19:53;3.90;;;3.60;;
6374;SDS011;35400;45.472;-122.822;2023-12-20T04:22:19;4.50;;;4.10;;
6374;SDS011;35400;45.472;-122.822;2023-12-20T04:24:46;6.83;;;5.50;;
6374;SDS011;35400;45.472;-122.822;2023-12-20T04:27:13;7.60;;;5.77;;
6374;SDS011;35400;45.472;-122.822;2023-12-20T04:29:40;6.77;;;5.63;;
6374;SDS011;35400;45.472;-122.822;2023-12-20T04:32:07;6.60;;;5.90;;
6374;SDS011;35400;45.472;-122.822;2023-12-20T04:34:57;8.53;;;6.50;;
6374;SDS011;35400;45.472;-122.822;2023-12-20T04:37:24;6.30;;;5.70;;
6374;SDS011;35400;45.472;-122.822;2023-12-20T04:39:51;7.07;;;5.80;;
6374;SDS011;35400;45.472;-122.822;2023-12-20T04:42:18;7.40;;;5.63;;
6374;SDS011;35400;45.472;-122.822;2023-12-20T04:44:45;6.97;;;5.40;;
6374;SDS011;35400;45.472;-122.822;2023-12-20T04:47:18;6.97;;;5.50;;
6374;SDS011;35400;45.472;-122.822;2023-12-20T04:49:44;5.80;;;5.20;;
6374;SDS011;35400;45.472;-122.822;2023-12-20T04:52:11;7.07;;;5.03;;
6374;SDS011;35400;45.472;-122.822;2023-12-20T04:54:38;6.27;;;5.27;;
6374;SDS011;35400;45.472;-122.822;2023-12-20T04:57:05;5.87;;;5.17;;
6374;SDS011;35400;45.472;-122.822;2023-12-20T04:59:32;6.07;;;5.47;;
6374;SDS011;35400;45.472;-122.822;2023-12-20T05:01:59;6.03;;;5.33;;
6374;SDS011;35400;45.472;-122.822;2023-12-20T05:04:26;5.57;;;4.97;;
6374;SDS011;35400;45.472;-122.822;2023-12-20T05:06:53;6.30;;;4.70;;
6374;SDS011;35400;45.472;-122.822;2023-12-20T05:09:20;6.13;;;5.53;;
6374;SDS011;35400;45.472;-122.822;2023-12-20T05:11:47;6.40;;;5.80;;
6374;SDS011;35400;45.472;-122.822;2023-12-20T05:14:14;7.60;;;6.33;;
6374;SDS011;35400;45.472;-122.822;2023-12-20T05:16:41;9.73;;;7.30;;
6374;SDS011;35400;45.472;-122.822;2023-12-20T05:19:07;9.63;;;7.43;;
6374;SDS011;35400;45.472;-122.822;2023-12-20T05:21:34;12.83;;;10.10;;
6374;SDS011;35400;45.472;-122.822;2023-12-20T05:24:01;12.10;;;9.53;;
6374;SDS011;35400;45.472;-122.822;2023-12-20T05:26:29;10.13;;;8.87;;
6374;SDS011;35400;45.472;-122.822;2023-12-20T05:28:56;10.33;;;8.27;;
6374;SDS011;35400;45.472;-122.822;2023-12-20T05:31:24;8.07;;;6.70;;
6374;SDS011;35400;45.472;-122.822;2023-12-20T05:33:51;6.20;;;5.60;;
6374;SDS011;35400;45.472;-122.822;2023-12-20T05:36:18;5.57;;;4.63;;
6374;SDS011;35400;45.472;-122.822;2023-12-20T05:38:45;5.93;;;5.10;;
6374;SDS011;35400;45.472;-122.822;2023-12-20T05:41:12;5.37;;;4.87;;
6374;SDS011;35400;45.472;-122.822;2023-12-20T05:43:39;4.57;;;4.17;;
6374;SDS011;35400;45.472;-122.822;2023-12-20T05:46:06;6.77;;;5.90;;
6374;SDS011;35400;45.472;-122.822;2023-12-20T05:48:35;6.03;;;5.00;;
6374;SDS011;35400;45.472;-122.822;2023-12-20T05:51:02;8.27;;;5.60;;
6374;SDS011;35400;45.472;-122.822;2023-12-20T05:53:29;7.77;;;5.70;;
6374;SDS011;35400;45.472;-122.822;2023-12-20T05:55:58;5.70;;;5.13;;
6374;SDS011;35400;45.472;-122.822;2023-12-20T05:58:25;7.90;;;5.37;;
6374;SDS011;35400;45.472;-122.822;2023-12-20T06:00:52;5.50;;;5.00;;
6374;SDS011;35400;45.472;-122.822;2023-12-20T06:03:19;6.13;;;5.53;;
6374;SDS011;35400;45.472;-122.822;2023-12-20T06:05:46;6.10;;;5.20;;
6374;SDS011;35400;45.472;-122.822;2023-12-20T06:08:13;7.93;;;6.33;;
6374;SDS011;35400;45.472;-122.822;2023-12-20T06:10:40;8.67;;;6.63;;
6374;SDS011;35400;45.472;-122.822;2023-12-20T06:13:08;6.17;;;5.33;;
6374;SDS011;35400;45.472;-122.822;2023-12-20T06:15:38;6.80;;;5.40;;
6374;SDS011;35400;45.472;-122.822;2023-12-20T06:18:10;5.03;;;4.33;;
6374;SDS011;35400;45.472;-122.822;2023-12-20T06:20:37;4.73;;;4.23;;
6374;SDS011;35400;45.472;-122.822;2023-12-20T06:23:04;4.10;;;3.70;;
6374;SDS011;35400;45.472;-122.822;2023-12-20T06:25:31;4.50;;;4.07;;
6374;SDS011;35400;45.472;-122.822;2023-12-20T06:27:57;4.13;;;3.73;;
6374;SDS011;35400;45.472;-122.822;2023-12-20T06:30:24;7.70;;;4.37;;
6374;SDS011;35400;45.472;-122.822;2023-12-20T06:32:53;4.83;;;3.60;;
6374;SDS011;35400;45.472;-122.822;2023-12-20T06:35:23;5.50;;;3.70;;
6374;SDS011;35400;45.472;-122.822;2023-12-20T06:37:50;4.57;;;3.80;;
6374;SDS011;35400;45.472;-122.822;2023-12-20T06:40:18;5.53;;;3.53;;
6374;SDS011;35400;45.472;-122.822;2023-12-20T06:42:45;3.80;;;3.40;;
6374;SDS011;35400;45.472;-122.822;2023-12-20T06:45:12;4.47;;;3.57;;
6374;SDS011;35400;45.472;-122.822;2023-12-20T06:47:39;4.10;;;3.30;;
6374;SDS011;35400;45.472;-122.822;2023-12-20T06:50:06;4.47;;;3.70;;
6374;SDS011;35400;45.472;-122.822;2023-12-20T06:52:34;4.73;;;3.83;;
6374;SDS011;35400;45.472;-122.822;2023-12-20T06:55:01;3.43;;;3.10;;
6374;SDS011;35400;45.472;-122.822;2023-12-20T06:57:28;3.63;;;3.20;;
6374;SDS011;35400;45.472;-122.822;2023-12-20T06:59:56;4.57;;;3.13;;
6374;SDS011;35400;45.472;-122.822;2023-12-20T07:02:23;3.70;;;3.00;;
6374;SDS011;35400;45.472;-122.822;2023-12-20T07:04:50;4.67;;;3.20;;
6374;SDS011;35400;45.472;-122.822;2023-12-20T07:07:17;24.03;;;10.87;;
6374;SDS011;35400;45.472;-122.822;2023-12-20T07:09:44;30.33;;;14.20;;
6374;SDS011;35400;45.472;-122.822;2023-12-20T07:12:11;26.37;;;12.83;;
6374;SDS011;35400;45.472;-122.822;2023-12-20T07:14:38;33.60;;;14.00;;
6374;SDS011;35400;45.472;-122.822;2023-12-20T07:17:05;28.70;;;13.77;;
6374;SDS011;35400;45.472;-122.822;2023-12-20T07:19:37;15.53;;;9.00;;
6374;SDS011;35400;45.472;-122.822;2023-12-20T07:22:05;12.03;;;8.07;;
6374;SDS011;35400;45.472;-122.822;2023-12-20T07:24:33;10.57;;;6.50;;
6374;SDS011;35400;45.472;-122.822;2023-12-20T07:27:00;6.80;;;5.20;;
6374;SDS011;35400;45.472;-122.822;2023-12-20T07:29:28;5.63;;;3.97;;
6374;SDS011;35400;45.472;-122.822;2023-12-20T07:31:54;4.60;;;3.80;;
6374;SDS011;35400;45.472;-122.822;2023-12-20T07:34:21;4.37;;;3.40;;
6374;SDS011;35400;45.472;-122.822;2023-12-20T07:36:48;4.13;;;3.73;;
6374;SDS011;35400;45.472;-122.822;2023-12-20T07:39:16;4.90;;;3.47;;
6374;SDS011;35400;45.472;-122.822;2023-12-20T07:41:42;5.00;;;3.20;;
6374;SDS011;35400;45.472;-122.822;2023-12-20T07:44:09;4.87;;;3.40;;
6374;SDS011;35400;45.472;-122.822;2023-12-20T07:46:36;3.90;;;3.33;;
6374;SDS011;35400;45.472;-122.822;2023-12-20T07:49:05;3.90;;;3.20;;
6374;SDS011;35400;45.472;-122.822;2023-12-20T07:51:32;3.67;;;3.20;;
6374;SDS011;35400;45.472;-122.822;2023-12-20T07:53:59;3.90;;;2.43;;
6374;SDS011;35400;45.472;-122.822;2023-12-20T07:56:26;3.17;;;2.87;;
6374;SDS011;35400;45.472;-122.822;2023-12-20T07:58:52;3.07;;;2.67;;
6374;SDS011;35400;45.472;-122.822;2023-12-20T08:01:19;3.43;;;2.93;;
6374;SDS011;35400;45.472;-122.822;2023-12-20T08:03:48;3.70;;;2.97;;
6374;SDS011;35400;45.472;-122.822;2023-12-20T08:06:15;3.43;;;3.10;;
6374;SDS011;35400;45.472;-122.822;2023-12-20T08:08:43;3.40;;;2.83;;
6374;SDS011;35400;45.472;-122.822;2023-12-20T08:11:09;4.70;;;3.43;;
6374;SDS011;35400;45.472;-122.822;2023-12-20T08:13:36;4.13;;;3.33;;
6374;SDS011;35400;45.472;-122.822;2023-12-20T08:16:03;3.07;;;2.60;;
6374;SDS011;35400;45.472;-122.822;2023-12-20T08:18:30;4.70;;;2.97;;
6374;SDS011;35400;45.472;-122.822;2023-12-20T08:20:57;3.67;;;2.97;;
6374;SDS011;35400;45.472;-122.822;2023-12-20T08:23:24;3.43;;;2.80;;
6374;SDS011;35400;45.472;-122.822;2023-12-20T08:25:51;4.03;;;2.90;;
6374;SDS011;35400;45.472;-122.822;2023-12-20T08:28:18;3.67;;;2.90;;
6374;SDS011;35400;45.472;-122.822;2023-12-20T08:30:45;4.27;;;3.20;;
6374;SDS011;35400;45.472;-122.822;2023-12-20T08:33:12;3.57;;;2.97;;
6374;SDS011;35400;45.472;-122.822;2023-12-20T08:35:39;3.23;;;2.93;;
6374;SDS011;35400;45.472;-122.822;2023-12-20T08:38:06;4.53;;;3.23;;
6374;SDS011;35400;45.472;-122.822;2023-12-20T08:40:33;4.03;;;3.10;;
6374;SDS011;35400;45.472;-122.822;2023-12-20T08:43:00;4.43;;;3.40;;
6374;SDS011;35400;45.472;-122.822;2023-12-20T08:45:27;4.67;;;3.00;;
6374;SDS011;35400;45.472;-122.822;2023-12-20T08:47:54;4.63;;;3.10;;
6374;SDS011;35400;45.472;-122.822;2023-12-20T08:50:21;3.90;;;3.43;;
6374;SDS011;35400;45.472;-122.822;2023-12-20T08:52:48;3.43;;;3.10;;
6374;SDS011;35400;45.472;-122.822;2023-12-20T08:55:15;3.13;;;2.83;;
6374;SDS011;35400;45.472;-122.822;2023-12-20T08:57:43;4.33;;;3.77;;
6374;SDS011;35400;45.472;-122.822;2023-12-20T09:00:10;5.77;;;3.40;;
6374;SDS011;35400;45.472;-122.822;2023-12-20T09:02:38;5.40;;;4.07;;
6374;SDS011;35400;45.472;-122.822;2023-12-20T09:05:05;3.73;;;3.03;;
6374;SDS011;35400;45.472;-122.822;2023-12-20T09:07:34;3.77;;;3.27;;
6374;SDS011;35400;45.472;-122.822;2023-12-20T09:10:01;4.63;;;3.60;;
6374;SDS011;35400;45.472;-122.822;2023-12-20T09:12:29;5.13;;;3.77;;
6374;SDS011;35400;45.472;-122.822;2023-12-20T09:14:56;5.10;;;4.13;;
6374;SDS011;35400;45.472;-122.822;2023-12-20T09:17:23;9.10;;;5.37;;
6374;SDS011;35400;45.472;-122.822;2023-12-20T09:19:50;8.93;;;5.70;;
6374;SDS011;35400;45.472;-122.822;2023-12-20T09:22:18;6.77;;;4.73;;
6374;SDS011;35400;45.472;-122.822;2023-12-20T09:24:45;5.10;;;3.83;;
6374;SDS011;35400;45.472;-122.822;2023-12-20T09:27:12;4.13;;;3.30;;
6374;SDS011;35400;45.472;-122.822;2023-12-20T09:29:39;4.40;;;3.37;;
6374;SDS011;35400;45.472;-122.822;2023-12-20T09:32:05;3.63;;;3.00;;
6374;SDS011;35400;45.472;-122.822;2023-12-20T09:34:33;3.97;;;2.97;;
6374;SDS011;35400;45.472;-122.822;2023-12-20T09:37:00;4.70;;;3.17;;
6374;SDS011;35400;45.472;-122.822;2023-12-20T09:39:28;5.10;;;3.00;;
6374;SDS011;35400;45.472;-122.822;2023-12-20T09:42:01;3.40;;;3.10;;
6374;SDS011;35400;45.472;-122.822;2023-12-20T09:44:30;4.30;;;3.70;;
6374;SDS011;35400;45.472;-122.822;2023-12-20T09:46:58;4.37;;;3.37;;
6374;SDS011;35400;45.472;-122.822;2023-12-20T09:49:30;5.27;;;3.70;;
6374;SDS011;35400;45.472;-122.822;2023-12-20T09:51:59;3.67;;;2.80;;
6374;SDS011;35400;45.472;-122.822;2023-12-20T09:54:28;3.43;;;3.00;;
6374;SDS011;35400;45.472;-122.822;2023-12-20T09:56:56;3.43;;;3.10;;
6374;SDS011;35400;45.472;-122.822;2023-12-20T09:59:23;4.13;;;3.43;;
6374;SDS011;35400;45.472;-122.822;2023-12-20T10:01:50;4.37;;;3.03;;
6374;SDS011;35400;45.472;-122.822;2023-12-20T10:04:19;4.70;;;3.10;;
6374;SDS011;35400;45.472;-122.822;2023-12-20T10:06:46;3.60;;;2.97;;
6374;SDS011;35400;45.472;-122.822;2023-12-20T10:09:13;3.37;;;2.67;;
6374;SDS011;35400;45.472;-122.822;2023-12-20T10:11:40;4.97;;;2.63;;
6374;SDS011;35400;45.472;-122.822;2023-12-20T10:14:07;3.97;;;3.10;;
6374;SDS011;35400;45.472;-122.822;2023-12-20T10:16:36;3.33;;;2.90;;
6374;SDS011;35400;45.472;-122.822;2023-12-20T10:19:03;4.23;;;2.60;;
6374;SDS011;35400;45.472;-122.822;2023-12-20T10:21:30;3.77;;;3.23;;
6374;SDS011;35400;45.472;-122.822;2023-12-20T10:23:57;3.60;;;3.17;;
6374;SDS011;35400;45.472;-122.822;2023-12-20T10:26:24;3.97;;;3.30;;
6374;SDS011;35400;45.472;-122.822;2023-12-20T10:28:56;3.30;;;3.00;;
6374;SDS011;35400;45.472;-122.822;2023-12-20T10:33:57;3.50;;;2.90;;
6374;SDS011;35400;45.472;-122.822;2023-12-20T10:36:26;4.97;;;3.10;;
6374;SDS011;35400;45.472;-122.822;2023-12-20T10:38:55;4.80;;;3.30;;
6374;SDS011;35400;45.472;-122.822;2023-12-20T10:41:30;3.93;;;2.80;;
6374;SDS011;35400;45.472;-122.822;2023-12-20T10:44:00;6.67;;;3.70;;
6374;SDS011;35400;45.472;-122.822;2023-12-20T10:46:28;4.53;;;3.40;;
6374;SDS011;35400;45.472;-122.822;2023-12-20T10:48:56;4.73;;;3.40;;
6374;SDS011;35400;45.472;-122.822;2023-12-20T10:51:24;5.73;;;4.33;;
6374;SDS011;35400;45.472;-122.822;2023-12-20T10:53:55;4.60;;;3.83;;
6374;SDS011;35400;45.472;-122.822;2023-12-20T10:56:23;4.70;;;3.70;;
6374;SDS011;35400;45.472;-122.822;2023-12-20T10:58:50;6.00;;;4.37;;
6374;SDS011;35400;45.472;-122.822;2023-12-20T11:01:18;6.40;;;4.17;;
6374;SDS011;35400;45.472;-122.822;2023-12-20T11:03:49;6.93;;;3.87;;
6374;SDS011;35400;45.472;-122.822;2023-12-20T11:06:29;7.00;;;4.53;;
6374;SDS011;35400;45.472;-122.822;2023-12-20T11:14:54;8.80;;;5.10;;
6374;SDS011;35400;45.472;-122.822;2023-12-20T11:17:23;5.87;;;4.40;;
6374;SDS011;35400;45.472;-122.822;2023-12-20T11:20:10;7.17;;;4.83;;
6374;SDS011;35400;45.472;-122.822;2023-12-20T11:22:37;7.77;;;5.40;;
6374;SDS011;35400;45.472;-122.822;2023-12-20T11:25:10;7.30;;;4.40;;
6374;SDS011;35400;45.472;-122.822;2023-12-20T11:27:41;7.70;;;5.20;;
6374;SDS011;35400;45.472;-122.822;2023-12-20T11:30:09;5.87;;;3.97;;
6374;SDS011;35400;45.472;-122.822;2023-12-20T11:32:36;6.73;;;4.50;;
6374;SDS011;35400;45.472;-122.822;2023-12-20T11:37:39;6.80;;;4.10;;
6374;SDS011;35400;45.472;-122.822;2023-12-20T11:40:16;5.83;;;4.23;;
6374;SDS011;35400;45.472;-122.822;2023-12-20T11:42:44;6.13;;;4.17;;
6374;SDS011;35400;45.472;-122.822;2023-12-20T11:45:16;6.00;;;4.10;;
6374;SDS011;35400;45.472;-122.822;2023-12-20T11:47:50;5.27;;;3.83;;
6374;SDS011;35400;45.472;-122.822;2023-12-20T11:50:19;6.77;;;4.57;;
6374;SDS011;35400;45.472;-122.822;2023-12-20T11:52:47;5.93;;;3.97;;
6374;SDS011;35400;45.472;-122.822;2023-12-20T11:55:14;4.70;;;3.53;;
6374;SDS011;35400;45.472;-122.822;2023-12-20T11:57:42;4.67;;;3.73;;
6374;SDS011;35400;45.472;-122.822;2023-12-20T12:00:10;4.63;;;3.77;;
6374;SDS011;35400;45.472;-122.822;2023-12-20T12:02:39;5.43;;;3.93;;
6374;SDS011;35400;45.472;-122.822;2023-12-20T12:05:07;3.80;;;3.20;;
6374;SDS011;35400;45.472;-122.822;2023-12-20T12:07:34;6.77;;;4.30;;
6374;SDS011;35400;45.472;-122.822;2023-12-20T12:10:01;4.67;;;3.60;;
6374;SDS011;35400;45.472;-122.822;2023-12-20T12:12:29;4.10;;;3.40;;
6374;SDS011;35400;45.472;-122.822;2023-12-20T12:14:58;3.50;;;2.80;;
6374;SDS011;35400;45.472;-122.822;2023-12-20T12:17:25;3.80;;;3.23;;
6374;SDS011;35400;45.472;-122.822;2023-12-20T12:19:52;6.70;;;3.90;;
6374;SDS011;35400;45.472;-122.822;2023-12-20T12:22:30;5.53;;;3.03;;
6374;SDS011;35400;45.472;-122.822;2023-12-20T12:25:09;4.13;;;3.33;;
6374;SDS011;35400;45.472;-122.822;2023-12-20T12:27:37;5.07;;;3.70;;
6374;SDS011;35400;45.472;-122.822;2023-12-20T12:30:05;6.20;;;3.80;;
6374;SDS011;35400;45.472;-122.822;2023-12-20T12:32:36;4.83;;;3.77;;
6374;SDS011;35400;45.472;-122.822;2023-12-20T12:35:03;5.60;;;4.03;;
6374;SDS011;35400;45.472;-122.822;2023-12-20T12:37:33;4.50;;;3.50;;
6374;SDS011;35400;45.472;-122.822;2023-12-20T12:40:01;6.03;;;3.87;;
6374;SDS011;35400;45.472;-122.822;2023-12-20T12:42:30;4.53;;;3.37;;
6374;SDS011;35400;45.472;-122.822;2023-12-20T12:44:57;3.87;;;3.33;;
6374;SDS011;35400;45.472;-122.822;2023-12-20T12:47:24;4.83;;;3.73;;
6374;SDS011;35400;45.472;-122.822;2023-12-20T12:49:51;4.30;;;3.60;;
6374;SDS011;35400;45.472;-122.822;2023-12-20T12:52:19;4.03;;;3.40;;
6374;SDS011;35400;45.472;-122.822;2023-12-20T12:54:46;4.30;;;3.43;;
6374;SDS011;35400;45.472;-122.822;2023-12-20T12:57:13;2.97;;;2.67;;
6374;SDS011;35400;45.472;-122.822;2023-12-20T12:59:42;3.40;;;3.10;;
6374;SDS011;35400;45.472;-122.822;2023-12-20T13:02:14;4.83;;;3.10;;
6374;SDS011;35400;45.472;-122.822;2023-12-20T13:04:42;4.00;;;2.77;;
6374;SDS011;35400;45.472;-122.822;2023-12-20T13:07:09;2.90;;;2.40;;
6374;SDS011;35400;45.472;-122.822;2023-12-20T13:09:37;4.63;;;3.37;;
6374;SDS011;35400;45.472;-122.822;2023-12-20T13:12:05;7.80;;;5.57;;
6374;SDS011;35400;45.472;-122.822;2023-12-20T13:14:33;7.07;;;5.20;;
6374;SDS011;35400;45.472;-122.822;2023-12-20T13:17:04;7.07;;;5.40;;
6374;SDS011;35400;45.472;-122.822;2023-12-20T13:19:31;8.00;;;5.80;;
6374;SDS011;35400;45.472;-122.822;2023-12-20T13:21:58;5.83;;;4.30;;
6374;SDS011;35400;45.472;-122.822;2023-12-20T13:24:25;3.97;;;3.57;;
6374;SDS011;35400;45.472;-122.822;2023-12-20T13:26:52;2.90;;;2.53;;
6374;SDS011;35400;45.472;-122.822;2023-12-20T13:29:19;3.10;;;2.67;;
6374;SDS011;35400;45.472;-122.822;2023-12-20T13:31:46;3.37;;;2.40;;
6374;SDS011;35400;45.472;-122.822;2023-12-20T13:34:13;2.73;;;2.50;;
6374;SDS011;35400;45.472;-122.822;2023-12-20T13:36:40;2.47;;;2.17;;
6374;SDS011;35400;45.472;-122.822;2023-12-20T13:39:06;4.03;;;2.97;;
6374;SDS011;35400;45.472;-122.822;2023-12-20T13:41:33;3.20;;;2.67;;
6374;SDS011;35400;45.472;-122.822;2023-12-20T13:44:00;4.53;;;2.80;;
6374;SDS011;35400;45.472;-122.822;2023-12-20T13:46:29;3.10;;;2.80;;
6374;SDS011;35400;45.472;-122.822;2023-12-20T13:48:55;3.90;;;2.93;;
6374;SDS011;35400;45.472;-122.822;2023-12-20T13:51:23;4.10;;;3.40;;
6374;SDS011;35400;45.472;-122.822;2023-12-20T13:53:50;4.57;;;3.63;;
6374;SDS011;35400;45.472;-122.822;2023-12-20T13:56:17;6.67;;;3.90;;
6374;SDS011;35400;45.472;-122.822;2023-12-20T13:58:45;4.13;;;3.77;;
6374;SDS011;35400;45.472;-122.822;2023-12-20T14:01:12;6.83;;;4.90;;
6374;SDS011;35400;45.472;-122.822;2023-12-20T14:03:39;40.90;;;6.17;;
6374;SDS011;35400;45.472;-122.822;2023-12-20T14:06:07;7.47;;;4.40;;
6374;SDS011;35400;45.472;-122.822;2023-12-20T14:08:33;3.97;;;3.57;;
6374;SDS011;35400;45.472;-122.822;2023-12-20T14:11:01;4.13;;;3.40;;
6374;SDS011;35400;45.472;-122.822;2023-12-20T14:13:28;4.53;;;3.73;;
6374;SDS011;35400;45.472;-122.822;2023-12-20T14:15:57;4.03;;;3.60;;
6374;SDS011;35400;45.472;-122.822;2023-12-20T14:18:26;5.47;;;4.07;;
6374;SDS011;35400;45.472;-122.822;2023-12-20T14:20:53;5.10;;;3.80;;
6374;SDS011;35400;45.472;-122.822;2023-12-20T14:23:20;5.47;;;4.00;;
6374;SDS011;35400;45.472;-122.822;2023-12-20T14:25:48;4.73;;;3.90;;
6374;SDS011;35400;45.472;-122.822;2023-12-20T14:28:15;7.20;;;4.50;;
6374;SDS011;35400;45.472;-122.822;2023-12-20T14:30:42;6.23;;;4.57;;
6374;SDS011;35400;45.472;-122.822;2023-12-20T14:33:09;9.03;;;6.53;;
6374;SDS011;35400;45.472;-122.822;2023-12-20T14:35:36;8.90;;;5.90;;